Terminal Aerodrome Forecast
Issued by NWS

Home | Current Version | Previous Version | Text Only | Print | Product List | Glossary On
Versions: 1 2 3 4 5 6 7 8 9 10 11 12 13 14 15 16 17 18 19 20 21 22 23
000
FTUS41 KOKX 252300
TAFSWF
TAF
KSWF 252337Z 2600/2706 27005KT P6SM BKN050
     FM260300 27007KT P6SM BKN050
     FM261000 29012G18KT P6SM SCT050
     FM261500 30020G30KT P6SM BKN050
     FM262200 30014G22KT P6SM SCT050
     FM270000 29010KT P6SM FEW050
      AMD NOT SKED=

USA.gov is the U.S. government's official web portal to all federal, state and local government web resources and services.